Bedford, New York
Current Conditions -  °F | °C
As of 6:56 PM on Wednesday 28 Jan 2015 (Local Time) from KHPN Reporting Station
Clear Clear  
Wind Chill: 11°   Ceiling: Unl
Heat Index: 23°   Visibility: 10mi
Dew Point:   Wind: 13mph
Humidity: 46%   Direction: 330°NNW
Pressure: 30.16"   Gusts: NA
Location:  41.2°N, 73.64°W
Report Text: KHPN 282356Z 33011KT 10SM CLR M05/M15 A3016 RMK AO2 SLP225 T10501150 11011 21050 53029
Loading
Personal Weather Stations






























Interactive Weather Map New forecast layout! Learn more

10-Day Weather Forecast

Advertisements
Track Severe Weather on mobile